sensor_id;sensor_type;location;lat;lon;timestamp;P1;durP1;ratioP1;P2;durP2;ratioP2
62863;SDS011;48954;59.950;11.014;2023-05-31T00:02:05;4.00;;;1.50;;
62863;SDS011;48954;59.950;11.014;2023-05-31T00:05:28;3.10;;;1.40;;
62863;SDS011;48954;59.950;11.014;2023-05-31T00:08:51;5.30;;;1.60;;
62863;SDS011;48954;59.950;11.014;2023-05-31T00:11:34;3.50;;;1.70;;
62863;SDS011;48954;59.950;11.014;2023-05-31T00:14:40;2.50;;;1.50;;
62863;SDS011;48954;59.950;11.014;2023-05-31T00:17:43;5.60;;;1.70;;
62863;SDS011;48954;59.950;11.014;2023-05-31T00:20:52;4.70;;;1.80;;
62863;SDS011;48954;59.950;11.014;2023-05-31T00:24:00;6.70;;;1.80;;
62863;SDS011;48954;59.950;11.014;2023-05-31T00:27:01;6.10;;;1.90;;
62863;SDS011;48954;59.950;11.014;2023-05-31T00:29:48;5.90;;;1.70;;
62863;SDS011;48954;59.950;11.014;2023-05-31T00:32:42;5.40;;;1.70;;
62863;SDS011;48954;59.950;11.014;2023-05-31T00:36:03;5.30;;;2.20;;
62863;SDS011;48954;59.950;11.014;2023-05-31T00:39:18;5.60;;;1.50;;
62863;SDS011;48954;59.950;11.014;2023-05-31T00:42:14;4.60;;;1.80;;
62863;SDS011;48954;59.950;11.014;2023-05-31T00:45:38;6.60;;;2.10;;
62863;SDS011;48954;59.950;11.014;2023-05-31T00:48:23;4.10;;;1.80;;
62863;SDS011;48954;59.950;11.014;2023-05-31T00:51:15;4.10;;;1.90;;
62863;SDS011;48954;59.950;11.014;2023-05-31T00:54:34;4.70;;;1.80;;
62863;SDS011;48954;59.950;11.014;2023-05-31T00:58:01;3.60;;;1.50;;
62863;SDS011;48954;59.950;11.014;2023-05-31T01:01:23;4.80;;;1.80;;
62863;SDS011;48954;59.950;11.014;2023-05-31T01:04:37;5.00;;;2.00;;
62863;SDS011;48954;59.950;11.014;2023-05-31T01:07:24;4.80;;;1.80;;
62863;SDS011;48954;59.950;11.014;2023-05-31T01:10:46;5.20;;;1.80;;
62863;SDS011;48954;59.950;11.014;2023-05-31T01:14:01;4.50;;;1.80;;
62863;SDS011;48954;59.950;11.014;2023-05-31T01:20:17;4.10;;;1.50;;
62863;SDS011;48954;59.950;11.014;2023-05-31T01:26:37;5.80;;;1.80;;
62863;SDS011;48954;59.950;11.014;2023-05-31T01:29:55;3.20;;;1.80;;
62863;SDS011;48954;59.950;11.014;2023-05-31T01:33:00;3.60;;;1.80;;
62863;SDS011;48954;59.950;11.014;2023-05-31T01:36:11;5.50;;;1.90;;
62863;SDS011;48954;59.950;11.014;2023-05-31T01:39:13;5.50;;;1.80;;
62863;SDS011;48954;59.950;11.014;2023-05-31T01:42:20;5.40;;;2.20;;
62863;SDS011;48954;59.950;11.014;2023-05-31T01:45:09;4.70;;;1.90;;
62863;SDS011;48954;59.950;11.014;2023-05-31T01:47:57;4.00;;;1.80;;
62863;SDS011;48954;59.950;11.014;2023-05-31T01:50:57;5.20;;;2.10;;
62863;SDS011;48954;59.950;11.014;2023-05-31T01:54:05;4.90;;;2.10;;
62863;SDS011;48954;59.950;11.014;2023-05-31T01:57:10;5.00;;;2.00;;
62863;SDS011;48954;59.950;11.014;2023-05-31T02:00:06;4.30;;;1.90;;
62863;SDS011;48954;59.950;11.014;2023-05-31T02:03:28;4.20;;;1.90;;
62863;SDS011;48954;59.950;11.014;2023-05-31T02:06:29;3.60;;;1.70;;
62863;SDS011;48954;59.950;11.014;2023-05-31T02:09:18;4.40;;;1.90;;
62863;SDS011;48954;59.950;11.014;2023-05-31T02:15:36;5.80;;;2.20;;
62863;SDS011;48954;59.950;11.014;2023-05-31T02:18:48;4.30;;;1.90;;
62863;SDS011;48954;59.950;11.014;2023-05-31T02:21:40;3.30;;;1.90;;
62863;SDS011;48954;59.950;11.014;2023-05-31T02:24:51;4.00;;;1.60;;
62863;SDS011;48954;59.950;11.014;2023-05-31T02:28:06;4.50;;;1.70;;
62863;SDS011;48954;59.950;11.014;2023-05-31T02:30:55;5.40;;;1.90;;
62863;SDS011;48954;59.950;11.014;2023-05-31T02:33:56;3.70;;;1.80;;
62863;SDS011;48954;59.950;11.014;2023-05-31T02:36:47;3.30;;;1.70;;
62863;SDS011;48954;59.950;11.014;2023-05-31T02:39:37;4.60;;;2.10;;
62863;SDS011;48954;59.950;11.014;2023-05-31T02:46:15;3.80;;;1.60;;
62863;SDS011;48954;59.950;11.014;2023-05-31T02:49:01;4.30;;;2.00;;
62863;SDS011;48954;59.950;11.014;2023-05-31T02:51:52;4.40;;;2.30;;
62863;SDS011;48954;59.950;11.014;2023-05-31T02:55:02;3.60;;;2.10;;
62863;SDS011;48954;59.950;11.014;2023-05-31T02:58:03;3.90;;;1.90;;
62863;SDS011;48954;59.950;11.014;2023-05-31T03:01:06;4.30;;;2.20;;
62863;SDS011;48954;59.950;11.014;2023-05-31T03:03:51;4.10;;;2.30;;
62863;SDS011;48954;59.950;11.014;2023-05-31T03:06:43;4.00;;;1.70;;
62863;SDS011;48954;59.950;11.014;2023-05-31T03:09:25;5.10;;;2.20;;
62863;SDS011;48954;59.950;11.014;2023-05-31T03:12:06;3.50;;;1.80;;
62863;SDS011;48954;59.950;11.014;2023-05-31T03:14:50;4.00;;;2.00;;
62863;SDS011;48954;59.950;11.014;2023-05-31T03:17:53;3.40;;;2.10;;
62863;SDS011;48954;59.950;11.014;2023-05-31T03:20:39;4.20;;;2.00;;
62863;SDS011;48954;59.950;11.014;2023-05-31T03:23:45;6.30;;;2.30;;
62863;SDS011;48954;59.950;11.014;2023-05-31T03:26:39;5.10;;;2.20;;
62863;SDS011;48954;59.950;11.014;2023-05-31T03:29:23;3.30;;;1.90;;
62863;SDS011;48954;59.950;11.014;2023-05-31T03:32:25;4.10;;;2.30;;
62863;SDS011;48954;59.950;11.014;2023-05-31T03:35:10;3.90;;;2.10;;
62863;SDS011;48954;59.950;11.014;2023-05-31T03:38:34;3.60;;;1.90;;
62863;SDS011;48954;59.950;11.014;2023-05-31T03:41:37;3.40;;;2.00;;
62863;SDS011;48954;59.950;11.014;2023-05-31T03:44:48;3.70;;;2.20;;
62863;SDS011;48954;59.950;11.014;2023-05-31T03:47:47;4.10;;;2.00;;
62863;SDS011;48954;59.950;11.014;2023-05-31T03:50:29;3.30;;;1.90;;
62863;SDS011;48954;59.950;11.014;2023-05-31T03:53:54;3.30;;;1.50;;
62863;SDS011;48954;59.950;11.014;2023-05-31T03:56:42;4.20;;;2.00;;
62863;SDS011;48954;59.950;11.014;2023-05-31T03:59:30;4.10;;;1.80;;
62863;SDS011;48954;59.950;11.014;2023-05-31T04:02:33;3.20;;;1.80;;
62863;SDS011;48954;59.950;11.014;2023-05-31T04:05:34;3.20;;;1.70;;
62863;SDS011;48954;59.950;11.014;2023-05-31T04:08:52;4.20;;;1.70;;
62863;SDS011;48954;59.950;11.014;2023-05-31T04:11:36;4.20;;;1.70;;
62863;SDS011;48954;59.950;11.014;2023-05-31T04:14:21;3.20;;;1.40;;
62863;SDS011;48954;59.950;11.014;2023-05-31T04:17:36;3.00;;;1.50;;
62863;SDS011;48954;59.950;11.014;2023-05-31T04:20:24;2.70;;;1.70;;
62863;SDS011;48954;59.950;11.014;2023-05-31T04:23:29;3.40;;;1.30;;
62863;SDS011;48954;59.950;11.014;2023-05-31T04:26:30;2.60;;;1.50;;
62863;SDS011;48954;59.950;11.014;2023-05-31T04:29:58;2.50;;;1.20;;
62863;SDS011;48954;59.950;11.014;2023-05-31T04:33:03;3.60;;;1.40;;
62863;SDS011;48954;59.950;11.014;2023-05-31T04:36:20;4.50;;;1.30;;
62863;SDS011;48954;59.950;11.014;2023-05-31T04:39:22;3.20;;;1.50;;
62863;SDS011;48954;59.950;11.014;2023-05-31T04:42:07;3.30;;;1.50;;
62863;SDS011;48954;59.950;11.014;2023-05-31T04:44:52;2.60;;;1.20;;
62863;SDS011;48954;59.950;11.014;2023-05-31T04:48:21;2.10;;;1.10;;
62863;SDS011;48954;59.950;11.014;2023-05-31T04:51:10;3.10;;;1.20;;
62863;SDS011;48954;59.950;11.014;2023-05-31T04:53:58;3.40;;;1.30;;
62863;SDS011;48954;59.950;11.014;2023-05-31T04:56:44;2.90;;;1.30;;
62863;SDS011;48954;59.950;11.014;2023-05-31T04:59:33;3.20;;;1.30;;
62863;SDS011;48954;59.950;11.014;2023-05-31T05:02:36;2.20;;;1.10;;
62863;SDS011;48954;59.950;11.014;2023-05-31T05:05:53;2.90;;;1.10;;
62863;SDS011;48954;59.950;11.014;2023-05-31T05:08:21;3.00;;;1.10;;
62863;SDS011;48954;59.950;11.014;2023-05-31T05:10:56;3.90;;;1.20;;
62863;SDS011;48954;59.950;11.014;2023-05-31T05:13:27;3.50;;;1.10;;
62863;SDS011;48954;59.950;11.014;2023-05-31T05:16:04;2.80;;;1.10;;
62863;SDS011;48954;59.950;11.014;2023-05-31T05:18:31;2.80;;;1.20;;
62863;SDS011;48954;59.950;11.014;2023-05-31T05:21:03;2.70;;;1.20;;
62863;SDS011;48954;59.950;11.014;2023-05-31T05:23:45;2.40;;;1.10;;
62863;SDS011;48954;59.950;11.014;2023-05-31T05:26:37;2.30;;;1.30;;
62863;SDS011;48954;59.950;11.014;2023-05-31T05:29:08;4.10;;;1.20;;
62863;SDS011;48954;59.950;11.014;2023-05-31T05:32:07;2.00;;;1.10;;
62863;SDS011;48954;59.950;11.014;2023-05-31T05:34:41;1.80;;;1.00;;
62863;SDS011;48954;59.950;11.014;2023-05-31T05:37:21;4.40;;;1.10;;
62863;SDS011;48954;59.950;11.014;2023-05-31T05:40:05;1.90;;;1.20;;
62863;SDS011;48954;59.950;11.014;2023-05-31T05:42:58;2.50;;;1.00;;
62863;SDS011;48954;59.950;11.014;2023-05-31T05:45:44;1.80;;;0.90;;
62863;SDS011;48954;59.950;11.014;2023-05-31T05:48:38;1.90;;;0.90;;
62863;SDS011;48954;59.950;11.014;2023-05-31T05:51:34;3.80;;;1.30;;
62863;SDS011;48954;59.950;11.014;2023-05-31T05:54:15;2.30;;;1.00;;
62863;SDS011;48954;59.950;11.014;2023-05-31T05:59:09;2.10;;;1.20;;
62863;SDS011;48954;59.950;11.014;2023-05-31T06:01:36;2.80;;;1.00;;
62863;SDS011;48954;59.950;11.014;2023-05-31T06:04:47;2.10;;;0.90;;
62863;SDS011;48954;59.950;11.014;2023-05-31T06:07:28;1.90;;;1.00;;
62863;SDS011;48954;59.950;11.014;2023-05-31T06:10:09;1.80;;;0.80;;
62863;SDS011;48954;59.950;11.014;2023-05-31T06:12:50;1.80;;;1.00;;
62863;SDS011;48954;59.950;11.014;2023-05-31T06:15:30;1.70;;;0.90;;
62863;SDS011;48954;59.950;11.014;2023-05-31T06:18:12;1.60;;;0.80;;
62863;SDS011;48954;59.950;11.014;2023-05-31T06:20:39;2.20;;;1.00;;
62863;SDS011;48954;59.950;11.014;2023-05-31T06:23:05;2.10;;;1.00;;
62863;SDS011;48954;59.950;11.014;2023-05-31T06:25:33;1.90;;;1.00;;
62863;SDS011;48954;59.950;11.014;2023-05-31T06:28:01;1.90;;;1.00;;
62863;SDS011;48954;59.950;11.014;2023-05-31T06:30:45;1.50;;;0.80;;
62863;SDS011;48954;59.950;11.014;2023-05-31T06:33:16;2.00;;;1.00;;
62863;SDS011;48954;59.950;11.014;2023-05-31T06:35:57;1.60;;;0.80;;
62863;SDS011;48954;59.950;11.014;2023-05-31T06:38:27;2.70;;;1.00;;
62863;SDS011;48954;59.950;11.014;2023-05-31T06:41:16;1.20;;;0.70;;
62863;SDS011;48954;59.950;11.014;2023-05-31T06:44:14;1.60;;;0.80;;
62863;SDS011;48954;59.950;11.014;2023-05-31T06:46:56;2.10;;;0.90;;
62863;SDS011;48954;59.950;11.014;2023-05-31T06:49:25;2.10;;;0.70;;
62863;SDS011;48954;59.950;11.014;2023-05-31T06:51:57;1.90;;;0.90;;
62863;SDS011;48954;59.950;11.014;2023-05-31T06:54:27;1.60;;;0.80;;
62863;SDS011;48954;59.950;11.014;2023-05-31T06:57:08;1.20;;;0.60;;
62863;SDS011;48954;59.950;11.014;2023-05-31T06:59:35;2.40;;;0.70;;
62863;SDS011;48954;59.950;11.014;2023-05-31T07:02:20;1.20;;;0.70;;
62863;SDS011;48954;59.950;11.014;2023-05-31T07:04:47;1.50;;;0.70;;
62863;SDS011;48954;59.950;11.014;2023-05-31T07:07:13;1.20;;;0.60;;
62863;SDS011;48954;59.950;11.014;2023-05-31T07:09:40;1.50;;;0.70;;
62863;SDS011;48954;59.950;11.014;2023-05-31T07:12:09;1.10;;;0.70;;
62863;SDS011;48954;59.950;11.014;2023-05-31T07:17:56;1.10;;;0.70;;
62863;SDS011;48954;59.950;11.014;2023-05-31T07:28:56;4.20;;;0.70;;
62863;SDS011;48954;59.950;11.014;2023-05-31T07:31:26;2.10;;;0.70;;
62863;SDS011;48954;59.950;11.014;2023-05-31T07:33:53;4.60;;;0.70;;
62863;SDS011;48954;59.950;11.014;2023-05-31T07:36:27;2.20;;;0.80;;
62863;SDS011;48954;59.950;11.014;2023-05-31T07:42:13;2.90;;;0.80;;
62863;SDS011;48954;59.950;11.014;2023-05-31T07:50:25;1.50;;;0.70;;
62863;SDS011;48954;59.950;11.014;2023-05-31T07:53:12;2.20;;;0.70;;
62863;SDS011;48954;59.950;11.014;2023-05-31T07:55:46;1.50;;;0.50;;
62863;SDS011;48954;59.950;11.014;2023-05-31T07:58:19;1.60;;;0.60;;
62863;SDS011;48954;59.950;11.014;2023-05-31T08:00:48;1.50;;;0.60;;
62863;SDS011;48954;59.950;11.014;2023-05-31T08:03:24;0.80;;;0.40;;
62863;SDS011;48954;59.950;11.014;2023-05-31T08:05:57;1.10;;;0.70;;
62863;SDS011;48954;59.950;11.014;2023-05-31T08:08:28;1.00;;;0.60;;
62863;SDS011;48954;59.950;11.014;2023-05-31T08:11:20;1.30;;;0.60;;
62863;SDS011;48954;59.950;11.014;2023-05-31T08:13:50;1.20;;;0.60;;
62863;SDS011;48954;59.950;11.014;2023-05-31T08:17:14;1.20;;;0.60;;
62863;SDS011;48954;59.950;11.014;2023-05-31T08:20:54;1.30;;;0.40;;
62863;SDS011;48954;59.950;11.014;2023-05-31T08:24:44;1.30;;;0.60;;
62863;SDS011;48954;59.950;11.014;2023-05-31T08:27:29;1.50;;;0.60;;
62863;SDS011;48954;59.950;11.014;2023-05-31T08:30:09;1.90;;;0.60;;
62863;SDS011;48954;59.950;11.014;2023-05-31T08:32:45;1.30;;;0.50;;
62863;SDS011;48954;59.950;11.014;2023-05-31T08:35:29;2.40;;;0.60;;
62863;SDS011;48954;59.950;11.014;2023-05-31T08:37:56;1.70;;;0.60;;
62863;SDS011;48954;59.950;11.014;2023-05-31T08:40:33;0.80;;;0.50;;
62863;SDS011;48954;59.950;11.014;2023-05-31T08:43:23;1.90;;;0.60;;
62863;SDS011;48954;59.950;11.014;2023-05-31T08:45:53;1.50;;;0.60;;
62863;SDS011;48954;59.950;11.014;2023-05-31T08:51:07;2.30;;;0.50;;
62863;SDS011;48954;59.950;11.014;2023-05-31T08:53:38;1.30;;;0.60;;
62863;SDS011;48954;59.950;11.014;2023-05-31T08:56:38;1.90;;;0.60;;
62863;SDS011;48954;59.950;11.014;2023-05-31T08:59:07;1.70;;;0.70;;
62863;SDS011;48954;59.950;11.014;2023-05-31T09:01:51;1.60;;;0.50;;
62863;SDS011;48954;59.950;11.014;2023-05-31T09:04:52;1.60;;;0.60;;
62863;SDS011;48954;59.950;11.014;2023-05-31T09:07:38;1.20;;;0.60;;
62863;SDS011;48954;59.950;11.014;2023-05-31T09:10:16;3.50;;;0.60;;
62863;SDS011;48954;59.950;11.014;2023-05-31T09:12:55;1.40;;;0.60;;
62863;SDS011;48954;59.950;11.014;2023-05-31T09:15:38;0.90;;;0.50;;
62863;SDS011;48954;59.950;11.014;2023-05-31T09:18:20;0.90;;;0.50;;
62863;SDS011;48954;59.950;11.014;2023-05-31T09:21:07;1.10;;;0.50;;
62863;SDS011;48954;59.950;11.014;2023-05-31T09:23:56;0.80;;;0.50;;
62863;SDS011;48954;59.950;11.014;2023-05-31T09:26:45;1.30;;;0.60;;
62863;SDS011;48954;59.950;11.014;2023-05-31T09:29:28;1.50;;;0.60;;
62863;SDS011;48954;59.950;11.014;2023-05-31T09:32:09;1.20;;;0.60;;
62863;SDS011;48954;59.950;11.014;2023-05-31T09:34:42;2.40;;;0.50;;
62863;SDS011;48954;59.950;11.014;2023-05-31T09:37:48;0.80;;;0.50;;
62863;SDS011;48954;59.950;11.014;2023-05-31T09:40:31;1.50;;;0.60;;
62863;SDS011;48954;59.950;11.014;2023-05-31T09:43:01;0.80;;;0.50;;
62863;SDS011;48954;59.950;11.014;2023-05-31T09:46:04;0.70;;;0.50;;
62863;SDS011;48954;59.950;11.014;2023-05-31T09:49:04;1.20;;;0.50;;
62863;SDS011;48954;59.950;11.014;2023-05-31T09:51:32;2.90;;;0.60;;
62863;SDS011;48954;59.950;11.014;2023-05-31T09:54:39;2.40;;;0.50;;
62863;SDS011;48954;59.950;11.014;2023-05-31T09:57:16;0.80;;;0.40;;
62863;SDS011;48954;59.950;11.014;2023-05-31T10:00:14;0.70;;;0.40;;
62863;SDS011;48954;59.950;11.014;2023-05-31T10:03:05;1.40;;;0.40;;
62863;SDS011;48954;59.950;11.014;2023-05-31T10:05:49;1.80;;;0.40;;
62863;SDS011;48954;59.950;11.014;2023-05-31T10:08:27;1.40;;;0.60;;
62863;SDS011;48954;59.950;11.014;2023-05-31T10:13:41;0.90;;;0.50;;
62863;SDS011;48954;59.950;11.014;2023-05-31T10:16:26;1.10;;;0.50;;
62863;SDS011;48954;59.950;11.014;2023-05-31T10:19:10;2.80;;;0.70;;
62863;SDS011;48954;59.950;11.014;2023-05-31T10:21:56;1.00;;;0.70;;
62863;SDS011;48954;59.950;11.014;2023-05-31T10:27:41;1.10;;;0.60;;
62863;SDS011;48954;59.950;11.014;2023-05-31T10:30:17;0.70;;;0.40;;
62863;SDS011;48954;59.950;11.014;2023-05-31T10:33:03;1.20;;;0.50;;
62863;SDS011;48954;59.950;11.014;2023-05-31T10:35:46;2.30;;;0.50;;
62863;SDS011;48954;59.950;11.014;2023-05-31T10:38:34;0.90;;;0.40;;
62863;SDS011;48954;59.950;11.014;2023-05-31T10:41:33;2.00;;;0.50;;
62863;SDS011;48954;59.950;11.014;2023-05-31T10:44:42;3.40;;;0.60;;
62863;SDS011;48954;59.950;11.014;2023-05-31T10:47:40;2.90;;;0.60;;
62863;SDS011;48954;59.950;11.014;2023-05-31T10:50:18;1.00;;;0.50;;
62863;SDS011;48954;59.950;11.014;2023-05-31T10:52:49;0.80;;;0.50;;
62863;SDS011;48954;59.950;11.014;2023-05-31T10:55:32;0.70;;;0.40;;
62863;SDS011;48954;59.950;11.014;2023-05-31T11:00:39;1.10;;;0.40;;
62863;SDS011;48954;59.950;11.014;2023-05-31T11:03:20;1.10;;;0.60;;
62863;SDS011;48954;59.950;11.014;2023-05-31T11:06:06;0.60;;;0.40;;
62863;SDS011;48954;59.950;11.014;2023-05-31T11:14:30;0.90;;;0.40;;
62863;SDS011;48954;59.950;11.014;2023-05-31T11:17:14;0.90;;;0.50;;
62863;SDS011;48954;59.950;11.014;2023-05-31T11:19:55;1.80;;;0.50;;
62863;SDS011;48954;59.950;11.014;2023-05-31T11:22:37;2.20;;;1.10;;
62863;SDS011;48954;59.950;11.014;2023-05-31T11:25:18;1.00;;;0.50;;
62863;SDS011;48954;59.950;11.014;2023-05-31T11:28:09;0.50;;;0.30;;
62863;SDS011;48954;59.950;11.014;2023-05-31T11:31:04;0.80;;;0.50;;
62863;SDS011;48954;59.950;11.014;2023-05-31T11:33:45;0.40;;;0.30;;
62863;SDS011;48954;59.950;11.014;2023-05-31T11:36:47;0.80;;;0.50;;
62863;SDS011;48954;59.950;11.014;2023-05-31T11:39:31;0.50;;;0.40;;
62863;SDS011;48954;59.950;11.014;2023-05-31T11:42:39;0.40;;;0.30;;
62863;SDS011;48954;59.950;11.014;2023-05-31T11:45:34;1.10;;;0.40;;
62863;SDS011;48954;59.950;11.014;2023-05-31T11:48:34;0.70;;;0.40;;
62863;SDS011;48954;59.950;11.014;2023-05-31T11:51:27;0.60;;;0.40;;
62863;SDS011;48954;59.950;11.014;2023-05-31T11:54:28;1.00;;;0.50;;
62863;SDS011;48954;59.950;11.014;2023-05-31T11:57:26;0.70;;;0.40;;
62863;SDS011;48954;59.950;11.014;2023-05-31T12:00:29;1.10;;;0.60;;
62863;SDS011;48954;59.950;11.014;2023-05-31T12:03:13;0.50;;;0.40;;
62863;SDS011;48954;59.950;11.014;2023-05-31T12:06:15;0.80;;;0.50;;
62863;SDS011;48954;59.950;11.014;2023-05-31T12:11:55;1.30;;;0.60;;
62863;SDS011;48954;59.950;11.014;2023-05-31T12:14:54;0.70;;;0.50;;
62863;SDS011;48954;59.950;11.014;2023-05-31T12:18:25;0.80;;;0.50;;
62863;SDS011;48954;59.950;11.014;2023-05-31T12:24:52;1.80;;;0.70;;
62863;SDS011;48954;59.950;11.014;2023-05-31T12:27:21;1.80;;;0.60;;
62863;SDS011;48954;59.950;11.014;2023-05-31T12:30:18;6.10;;;0.80;;
62863;SDS011;48954;59.950;11.014;2023-05-31T12:32:56;2.20;;;0.80;;
62863;SDS011;48954;59.950;11.014;2023-05-31T12:35:56;1.20;;;0.60;;
62863;SDS011;48954;59.950;11.014;2023-05-31T12:39:10;1.10;;;0.70;;
62863;SDS011;48954;59.950;11.014;2023-05-31T12:45:18;1.20;;;0.60;;
62863;SDS011;48954;59.950;11.014;2023-05-31T12:47:59;1.00;;;0.60;;
62863;SDS011;48954;59.950;11.014;2023-05-31T12:51:22;1.20;;;0.80;;
62863;SDS011;48954;59.950;11.014;2023-05-31T12:54:29;2.00;;;0.70;;
62863;SDS011;48954;59.950;11.014;2023-05-31T13:03:36;0.70;;;0.50;;
62863;SDS011;48954;59.950;11.014;2023-05-31T13:07:09;3.50;;;0.80;;
62863;SDS011;48954;59.950;11.014;2023-05-31T13:14:00;1.20;;;0.50;;
62863;SDS011;48954;59.950;11.014;2023-05-31T13:21:10;0.70;;;0.50;;
62863;SDS011;48954;59.950;11.014;2023-05-31T13:24:36;1.10;;;0.60;;
62863;SDS011;48954;59.950;11.014;2023-05-31T13:28:07;1.80;;;0.90;;
62863;SDS011;48954;59.950;11.014;2023-05-31T13:30:49;1.80;;;0.70;;
62863;SDS011;48954;59.950;11.014;2023-05-31T13:33:29;1.40;;;0.50;;
62863;SDS011;48954;59.950;11.014;2023-05-31T13:36:32;1.50;;;0.60;;
62863;SDS011;48954;59.950;11.014;2023-05-31T13:39:16;1.30;;;0.70;;
62863;SDS011;48954;59.950;11.014;2023-05-31T13:42:19;1.30;;;0.70;;
62863;SDS011;48954;59.950;11.014;2023-05-31T13:45:07;3.20;;;0.70;;
62863;SDS011;48954;59.950;11.014;2023-05-31T13:50:56;1.70;;;0.60;;
62863;SDS011;48954;59.950;11.014;2023-05-31T13:53:25;1.80;;;0.50;;
62863;SDS011;48954;59.950;11.014;2023-05-31T13:59:31;1.30;;;0.80;;
62863;SDS011;48954;59.950;11.014;2023-05-31T14:05:42;1.40;;;0.60;;
62863;SDS011;48954;59.950;11.014;2023-05-31T14:08:52;2.10;;;0.70;;
62863;SDS011;48954;59.950;11.014;2023-05-31T14:11:25;1.60;;;0.50;;
62863;SDS011;48954;59.950;11.014;2023-05-31T14:13:59;1.50;;;0.60;;
62863;SDS011;48954;59.950;11.014;2023-05-31T14:17:17;2.80;;;0.80;;
62863;SDS011;48954;59.950;11.014;2023-05-31T14:20:35;1.20;;;0.70;;
62863;SDS011;48954;59.950;11.014;2023-05-31T14:23:15;1.20;;;0.70;;
62863;SDS011;48954;59.950;11.014;2023-05-31T14:26:05;3.00;;;0.60;;
62863;SDS011;48954;59.950;11.014;2023-05-31T14:29:03;1.70;;;0.70;;
62863;SDS011;48954;59.950;11.014;2023-05-31T14:31:49;1.20;;;0.70;;
62863;SDS011;48954;59.950;11.014;2023-05-31T14:34:50;2.60;;;0.80;;
62863;SDS011;48954;59.950;11.014;2023-05-31T14:37:56;2.10;;;0.80;;
62863;SDS011;48954;59.950;11.014;2023-05-31T14:40:38;1.30;;;0.60;;
62863;SDS011;48954;59.950;11.014;2023-05-31T14:43:11;1.60;;;0.70;;
62863;SDS011;48954;59.950;11.014;2023-05-31T14:45:38;3.00;;;0.70;;
62863;SDS011;48954;59.950;11.014;2023-05-31T14:48:06;1.60;;;0.60;;
62863;SDS011;48954;59.950;11.014;2023-05-31T14:50:44;1.80;;;0.50;;
62863;SDS011;48954;59.950;11.014;2023-05-31T14:53:19;2.70;;;0.60;;
62863;SDS011;48954;59.950;11.014;2023-05-31T14:55:56;1.10;;;0.50;;
62863;SDS011;48954;59.950;11.014;2023-05-31T14:58:28;1.40;;;0.70;;
62863;SDS011;48954;59.950;11.014;2023-05-31T15:01:08;1.20;;;0.60;;
62863;SDS011;48954;59.950;11.014;2023-05-31T15:03:37;3.50;;;0.70;;
62863;SDS011;48954;59.950;11.014;2023-05-31T15:06:04;2.60;;;0.70;;
62863;SDS011;48954;59.950;11.014;2023-05-31T15:08:46;1.50;;;0.60;;
62863;SDS011;48954;59.950;11.014;2023-05-31T15:11:26;2.60;;;0.90;;
62863;SDS011;48954;59.950;11.014;2023-05-31T15:13:56;1.60;;;0.70;;
62863;SDS011;48954;59.950;11.014;2023-05-31T15:16:46;1.40;;;0.70;;
62863;SDS011;48954;59.950;11.014;2023-05-31T15:19:15;2.40;;;0.60;;
62863;SDS011;48954;59.950;11.014;2023-05-31T15:21:42;1.40;;;0.70;;
62863;SDS011;48954;59.950;11.014;2023-05-31T15:24:15;3.80;;;1.00;;
62863;SDS011;48954;59.950;11.014;2023-05-31T15:26:44;2.30;;;1.10;;
62863;SDS011;48954;59.950;11.014;2023-05-31T15:29:17;2.10;;;0.80;;
62863;SDS011;48954;59.950;11.014;2023-05-31T15:31:44;3.30;;;0.90;;
62863;SDS011;48954;59.950;11.014;2023-05-31T15:34:32;2.90;;;0.60;;
62863;SDS011;48954;59.950;11.014;2023-05-31T15:37:14;2.70;;;0.60;;
62863;SDS011;48954;59.950;11.014;2023-05-31T15:39:57;2.30;;;0.70;;
62863;SDS011;48954;59.950;11.014;2023-05-31T15:42:46;4.70;;;0.80;;
62863;SDS011;48954;59.950;11.014;2023-05-31T15:45:27;5.70;;;1.00;;
62863;SDS011;48954;59.950;11.014;2023-05-31T15:48:08;4.80;;;0.80;;
62863;SDS011;48954;59.950;11.014;2023-05-31T15:50:53;2.60;;;1.00;;
62863;SDS011;48954;59.950;11.014;2023-05-31T15:53:21;2.10;;;0.90;;
62863;SDS011;48954;59.950;11.014;2023-05-31T15:56:21;2.10;;;0.70;;
62863;SDS011;48954;59.950;11.014;2023-05-31T15:58:48;1.70;;;0.80;;
62863;SDS011;48954;59.950;11.014;2023-05-31T16:01:20;2.50;;;1.00;;
62863;SDS011;48954;59.950;11.014;2023-05-31T16:03:51;3.80;;;0.90;;
62863;SDS011;48954;59.950;11.014;2023-05-31T16:06:24;3.00;;;1.00;;
62863;SDS011;48954;59.950;11.014;2023-05-31T16:11:26;3.10;;;0.90;;
62863;SDS011;48954;59.950;11.014;2023-05-31T16:14:25;4.50;;;0.90;;
62863;SDS011;48954;59.950;11.014;2023-05-31T16:16:52;4.30;;;1.00;;
62863;SDS011;48954;59.950;11.014;2023-05-31T16:19:20;2.10;;;0.80;;
62863;SDS011;48954;59.950;11.014;2023-05-31T16:21:48;5.40;;;1.00;;
62863;SDS011;48954;59.950;11.014;2023-05-31T16:24:18;3.20;;;0.80;;
62863;SDS011;48954;59.950;11.014;2023-05-31T16:26:50;4.10;;;1.20;;
62863;SDS011;48954;59.950;11.014;2023-05-31T16:29:20;5.40;;;0.90;;
62863;SDS011;48954;59.950;11.014;2023-05-31T16:31:52;3.30;;;1.10;;
62863;SDS011;48954;59.950;11.014;2023-05-31T16:34:24;7.00;;;1.10;;
62863;SDS011;48954;59.950;11.014;2023-05-31T16:36:55;20.70;;;1.90;;
62863;SDS011;48954;59.950;11.014;2023-05-31T16:39:45;3.20;;;1.00;;
62863;SDS011;48954;59.950;11.014;2023-05-31T16:42:17;3.60;;;0.80;;
62863;SDS011;48954;59.950;11.014;2023-05-31T16:44:50;3.00;;;1.20;;
62863;SDS011;48954;59.950;11.014;2023-05-31T16:49:52;3.10;;;0.70;;
62863;SDS011;48954;59.950;11.014;2023-05-31T16:52:34;2.80;;;1.20;;
62863;SDS011;48954;59.950;11.014;2023-05-31T16:55:18;3.40;;;1.10;;
62863;SDS011;48954;59.950;11.014;2023-05-31T16:57:45;4.40;;;1.30;;
62863;SDS011;48954;59.950;11.014;2023-05-31T17:00:18;4.60;;;1.20;;
62863;SDS011;48954;59.950;11.014;2023-05-31T17:02:45;3.30;;;1.00;;
62863;SDS011;48954;59.950;11.014;2023-05-31T17:05:19;4.10;;;2.00;;
62863;SDS011;48954;59.950;11.014;2023-05-31T17:07:46;3.70;;;1.50;;
62863;SDS011;48954;59.950;11.014;2023-05-31T17:10:14;10.60;;;7.00;;
62863;SDS011;48954;59.950;11.014;2023-05-31T17:12:57;2.90;;;1.30;;
62863;SDS011;48954;59.950;11.014;2023-05-31T17:15:30;4.40;;;1.30;;
62863;SDS011;48954;59.950;11.014;2023-05-31T17:17:57;3.50;;;1.30;;
62863;SDS011;48954;59.950;11.014;2023-05-31T17:20:28;3.90;;;1.50;;
62863;SDS011;48954;59.950;11.014;2023-05-31T17:22:59;2.60;;;1.10;;
62863;SDS011;48954;59.950;11.014;2023-05-31T17:25:26;3.80;;;1.10;;
62863;SDS011;48954;59.950;11.014;2023-05-31T17:27:54;2.80;;;0.70;;
62863;SDS011;48954;59.950;11.014;2023-05-31T17:30:24;2.30;;;0.80;;
62863;SDS011;48954;59.950;11.014;2023-05-31T17:32:54;4.10;;;1.00;;
62863;SDS011;48954;59.950;11.014;2023-05-31T17:35:34;4.60;;;1.00;;
62863;SDS011;48954;59.950;11.014;2023-05-31T17:38:01;6.70;;;1.50;;
62863;SDS011;48954;59.950;11.014;2023-05-31T17:42:56;5.80;;;1.00;;
62863;SDS011;48954;59.950;11.014;2023-05-31T17:45:24;3.60;;;1.20;;
62863;SDS011;48954;59.950;11.014;2023-05-31T17:47:56;3.80;;;1.20;;
62863;SDS011;48954;59.950;11.014;2023-05-31T17:50:24;3.40;;;0.90;;
62863;SDS011;48954;59.950;11.014;2023-05-31T17:53:04;2.40;;;0.70;;
62863;SDS011;48954;59.950;11.014;2023-05-31T17:55:31;2.80;;;0.70;;
62863;SDS011;48954;59.950;11.014;2023-05-31T17:57:58;4.30;;;1.10;;
62863;SDS011;48954;59.950;11.014;2023-05-31T18:00:30;4.70;;;1.10;;
62863;SDS011;48954;59.950;11.014;2023-05-31T18:02:58;3.20;;;0.90;;
62863;SDS011;48954;59.950;11.014;2023-05-31T18:05:29;4.60;;;1.10;;
62863;SDS011;48954;59.950;11.014;2023-05-31T18:08:05;3.90;;;0.90;;